Time;durP1;ratioP1;P1;durP2;ratioP2;P2;SDS_P1;SDS_P2;PMS_P1;PMS_P2;Temp;Humidity;BMP_temperature;BMP_pressure;BME280_temperature;BME280_humidity;BME280_pressure;Samples;Min_cycle;Max_cycle;Signal;HPM_P1;HPM_P2
2022/10/17 00:01:42;;;;;;;11.68;3.45;;;13.10;99.90;;;;;;5088367;28;20482;-68
2022/10/17 00:04:07;;;;;;;8.48;3.65;;;13.10;99.90;;;;;;5088914;28;20042;-68
2022/10/17 00:06:33;;;;;;;5.65;3.15;;;13.10;99.90;;;;;;5089182;28;20398;-68
2022/10/17 00:08:58;;;;;;;9.02;3.58;;;13.10;99.90;;;;;;5089305;28;20124;-68
2022/10/17 00:11:25;;;;;;;6.05;3.30;;;13.10;99.90;;;;;;5088275;28;20040;-68
2022/10/17 00:13:54;;;;;;;10.48;3.40;;;13.10;99.90;;;;;;5090043;28;20047;-68
2022/10/17 00:16:46;;;;;;;9.98;3.53;;;13.10;99.90;;;;;;5089596;28;20040;-68
2022/10/17 00:19:11;;;;;;;5.72;3.10;;;13.20;99.90;;;;;;5082192;28;20398;-68
2022/10/17 00:21:37;;;;;;;7.53;3.58;;;13.20;99.90;;;;;;5087454;28;20044;-68
2022/10/17 00:24:03;;;;;;;4.88;3.60;;;13.20;99.90;;;;;;5092463;28;20036;-68
2022/10/17 00:26:28;;;;;;;6.70;3.30;;;13.20;99.90;;;;;;5088206;28;20039;-68
2022/10/17 00:28:54;;;;;;;6.05;3.53;;;13.20;99.90;;;;;;5089336;28;20054;-68
2022/10/17 00:31:22;;;;;;;8.77;3.20;;;13.20;99.90;;;;;;5088901;28;20043;-68
2022/10/17 00:33:48;;;;;;;5.47;3.40;;;13.20;99.90;;;;;;5092196;28;20490;-68
2022/10/17 00:36:20;;;;;;;9.38;3.55;;;13.30;99.90;;;;;;5089327;28;20086;-68
2022/10/17 00:38:48;;;;;;;5.78;4.32;;;13.30;99.90;;;;;;5089087;28;20036;-68
2022/10/17 00:41:16;;;;;;;9.00;3.50;;;13.30;99.90;;;;;;5051799;28;20073;-68
2022/10/17 00:44:06;;;;;;;7.78;3.55;;;13.30;99.90;;;;;;5067589;28;20052;-68
2022/10/17 00:46:37;;;;;;;9.85;4.88;;;13.30;99.90;;;;;;5054583;28;20113;-68
2022/10/17 00:49:07;;;;;;;9.85;5.03;;;13.30;99.90;;;;;;5070780;28;20035;-68
2022/10/17 00:51:45;;;;;;;11.88;6.28;;;13.30;99.90;;;;;;5073764;28;20036;-68
2022/10/17 00:54:13;;;;;;;6.85;5.10;;;13.30;99.90;;;;;;5075926;28;20044;-68
2022/10/17 00:56:39;;;;;;;10.50;5.70;;;13.40;99.90;;;;;;5077459;28;20047;-68
2022/10/17 00:59:07;;;;;;;9.85;5.35;;;13.40;99.90;;;;;;5058884;28;20032;-68
2022/10/17 01:01:34;;;;;;;9.13;5.32;;;13.40;99.90;;;;;;5075095;28;20059;-68
2022/10/17 01:04:00;;;;;;;7.20;5.15;;;13.40;99.90;;;;;;5078521;28;20040;-68
2022/10/17 01:06:25;;;;;;;11.55;4.88;;;13.40;99.90;;;;;;5076561;28;20539;-68
2022/10/17 01:08:51;;;;;;;8.20;5.13;;;13.40;99.90;;;;;;5074430;28;20422;-68
2022/10/17 01:11:38;;;;;;;7.50;4.40;;;13.40;99.90;;;;;;5074272;28;20071;-68
2022/10/17 01:14:40;;;;;;;9.75;4.60;;;13.40;99.90;;;;;;5073722;28;20051;-68
2022/10/17 01:17:35;;;;;;;7.82;4.63;;;13.40;99.90;;;;;;5076859;28;20071;-68
2022/10/17 01:20:32;;;;;;;7.15;4.90;;;13.30;99.90;;;;;;5074751;28;20562;-68
2022/10/17 01:23:24;;;;;;;9.23;6.75;;;13.30;99.90;;;;;;5075716;28;20054;-68
2022/10/17 01:26:13;;;;;;;11.50;8.13;;;13.30;99.90;;;;;;5072275;28;20387;-68
2022/10/17 01:29:17;;;;;;;13.18;10.27;;;13.30;99.90;;;;;;5077273;28;20124;-68
2022/10/17 01:31:47;;;;;;;14.60;11.07;;;13.20;99.90;;;;;;5074239;28;20039;-68
2022/10/17 01:34:21;;;;;;;21.00;13.30;;;13.30;99.90;;;;;;5074529;28;20040;-68
2022/10/17 01:36:52;;;;;;;16.60;13.00;;;13.20;99.90;;;;;;5075923;28;20036;-68
2022/10/17 01:39:46;;;;;;;17.17;14.80;;;13.20;99.90;;;;;;5074333;28;20383;-68
2022/10/17 01:42:18;;;;;;;16.92;13.50;;;13.20;99.90;;;;;;5075694;28;20055;-68
2022/10/17 01:44:54;;;;;;;15.13;13.43;;;13.20;99.90;;;;;;5078650;28;20063;-68
2022/10/17 01:47:23;;;;;;;22.90;15.40;;;13.20;99.90;;;;;;5056207;28;20330;-68
2022/10/17 01:49:52;;;;;;;16.42;14.73;;;13.10;99.90;;;;;;5059083;28;20048;-68
2022/10/17 01:52:24;;;;;;;20.80;15.48;;;13.10;99.90;;;;;;5074851;28;20048;-68
2022/10/17 01:55:34;;;;;;;16.55;14.70;;;13.10;99.90;;;;;;5074001;28;20036;-68
2022/10/17 01:58:11;;;;;;;16.00;13.98;;;13.20;99.90;;;;;;4995458;28;20094;-68
2022/10/17 02:00:38;;;;;;;17.92;15.43;;;13.10;99.90;;;;;;4994491;28;20049;-68
2022/10/17 02:03:08;;;;;;;15.90;14.20;;;13.10;99.90;;;;;;4993206;28;20132;-68
2022/10/17 02:05:40;;;;;;;18.38;14.35;;;13.10;99.90;;;;;;4973921;28;20501;-68
2022/10/17 02:08:05;;;;;;;14.60;11.73;;;13.10;99.90;;;;;;4978100;28;20483;-68
2022/10/17 02:10:35;;;;;;;16.42;13.38;;;13.00;99.90;;;;;;4994156;28;20120;-68
2022/10/17 02:13:05;;;;;;;16.08;12.25;;;13.00;99.90;;;;;;4994501;28;20121;-68
2022/10/17 02:16:07;;;;;;;17.38;12.35;;;13.00;99.90;;;;;;4991397;28;20054;-68
2022/10/17 02:19:09;;;;;;;13.63;10.82;;;13.00;99.90;;;;;;4994299;28;20052;-68
2022/10/17 02:21:40;;;;;;;13.18;10.13;;;13.00;99.90;;;;;;4992319;28;20057;-68
2022/10/17 02:24:27;;;;;;;10.03;8.97;;;13.00;99.90;;;;;;4993593;28;20119;-68
2022/10/17 02:27:00;;;;;;;12.20;8.82;;;13.00;99.90;;;;;;4992393;28;20305;-68
2022/10/17 02:29:37;;;;;;;10.23;8.80;;;13.00;99.90;;;;;;5053813;28;20056;-68
2022/10/17 02:32:09;;;;;;;11.60;8.95;;;13.00;99.90;;;;;;5057759;28;20035;-68
2022/10/17 02:34:40;;;;;;;10.38;7.70;;;13.00;99.90;;;;;;5074133;28;20073;-68
2022/10/17 02:37:08;;;;;;;8.25;6.85;;;13.00;99.90;;;;;;5074000;28;20054;-68
2022/10/17 02:39:37;;;;;;;9.55;7.07;;;13.00;99.90;;;;;;5073504;28;20056;-68
2022/10/17 02:42:06;;;;;;;8.95;6.70;;;13.00;99.90;;;;;;5074219;28;20039;-68
2022/10/17 02:44:32;;;;;;;10.70;6.95;;;13.00;99.90;;;;;;5074092;28;20046;-68
2022/10/17 02:47:10;;;;;;;8.55;6.72;;;13.00;99.90;;;;;;5070670;28;20402;-68
2022/10/17 02:49:40;;;;;;;9.32;6.93;;;13.00;99.90;;;;;;5071829;28;20478;-68
2022/10/17 02:52:25;;;;;;;7.65;6.68;;;13.00;99.90;;;;;;5072055;28;20036;-68
2022/10/17 02:54:57;;;;;;;11.25;7.13;;;13.00;99.90;;;;;;5076284;28;20071;-68
2022/10/17 02:57:39;;;;;;;8.88;7.65;;;13.00;99.90;;;;;;5073788;28;20043;-68
2022/10/17 03:00:08;;;;;;;8.52;7.40;;;13.00;99.90;;;;;;5071296;28;20043;-68
2022/10/17 03:02:53;;;;;;;8.63;7.47;;;13.00;99.90;;;;;;5069721;28;20075;-68
2022/10/17 03:05:22;;;;;;;10.80;8.25;;;13.10;99.90;;;;;;5071725;28;20149;-68
2022/10/17 03:07:47;;;;;;;11.18;8.27;;;13.00;99.90;;;;;;5070856;28;20040;-68
2022/10/17 03:10:13;;;;;;;11.15;8.15;;;13.10;99.90;;;;;;5073370;28;20040;-68
2022/10/17 03:12:39;;;;;;;10.10;8.55;;;13.10;99.90;;;;;;5069233;28;20062;-68
2022/10/17 03:15:05;;;;;;;10.60;8.90;;;13.10;99.90;;;;;;5073400;28;20040;-68
2022/10/17 03:17:31;;;;;;;12.02;8.82;;;13.10;99.90;;;;;;5071289;28;20046;-68
2022/10/17 03:19:57;;;;;;;11.43;9.27;;;13.10;99.90;;;;;;5067039;28;20040;-68
2022/10/17 03:22:23;;;;;;;12.38;9.02;;;13.10;99.90;;;;;;5072435;28;20047;-68
2022/10/17 03:24:49;;;;;;;12.77;9.13;;;13.10;99.90;;;;;;5073863;28;20391;-68
2022/10/17 03:27:14;;;;;;;10.48;9.38;;;13.10;99.90;;;;;;5072452;28;20041;-68
2022/10/17 03:29:40;;;;;;;12.90;9.38;;;13.10;99.90;;;;;;5071009;28;20036;-68
2022/10/17 03:32:06;;;;;;;11.60;9.95;;;13.10;99.90;;;;;;5070752;28;20040;-68
2022/10/17 03:34:31;;;;;;;10.45;9.43;;;13.10;99.90;;;;;;5089469;28;20036;-68
2022/10/17 03:36:57;;;;;;;12.50;9.55;;;13.10;99.90;;;;;;5072356;28;20056;-68
2022/10/17 03:39:23;;;;;;;12.70;10.13;;;13.10;99.90;;;;;;5072146;28;20055;-68
2022/10/17 03:41:48;;;;;;;14.02;10.23;;;13.10;99.90;;;;;;5054613;28;20044;-68
2022/10/17 03:44:14;;;;;;;13.50;11.45;;;13.10;99.90;;;;;;5068348;28;20155;-68
2022/10/17 03:46:40;;;;;;;14.63;11.18;;;13.20;99.90;;;;;;5070569;28;20040;-68
2022/10/17 03:49:08;;;;;;;13.10;10.38;;;13.20;99.90;;;;;;5055078;28;20047;-68
2022/10/17 03:51:34;;;;;;;12.13;10.82;;;13.20;99.90;;;;;;5071366;28;20123;-68
2022/10/17 03:54:00;;;;;;;12.13;10.25;;;13.20;99.90;;;;;;5071604;28;20047;-68
2022/10/17 03:56:26;;;;;;;14.15;11.98;;;13.20;99.90;;;;;;5071919;28;20044;-68
2022/10/17 03:58:53;;;;;;;13.90;10.75;;;13.20;99.90;;;;;;5070725;28;20044;-68
2022/10/17 04:01:19;;;;;;;14.55;11.43;;;13.20;99.90;;;;;;5072294;28;20044;-68
2022/10/17 04:03:49;;;;;;;13.20;11.07;;;13.20;99.90;;;;;;5071702;28;20035;-67
2022/10/17 04:06:15;;;;;;;14.60;11.10;;;13.20;99.90;;;;;;5070704;28;20032;-68
2022/10/17 04:08:41;;;;;;;13.95;11.85;;;13.20;99.90;;;;;;5072224;28;20051;-68
2022/10/17 04:11:10;;;;;;;12.63;11.25;;;13.20;99.90;;;;;;5070353;28;20372;-68
2022/10/17 04:13:35;;;;;;;12.98;11.45;;;13.20;99.90;;;;;;5073961;28;20043;-68
2022/10/17 04:16:07;;;;;;;13.77;11.48;;;13.30;99.90;;;;;;5070063;28;20047;-68
2022/10/17 04:18:33;;;;;;;15.33;12.20;;;13.30;99.90;;;;;;5088317;28;20043;-68
2022/10/17 04:21:03;;;;;;;13.13;11.70;;;13.30;99.90;;;;;;5068668;28;20308;-68
2022/10/17 04:23:29;;;;;;;15.75;11.88;;;13.40;99.90;;;;;;5071566;28;20118;-68
2022/10/17 04:25:56;;;;;;;17.75;12.48;;;13.40;99.90;;;;;;5067318;28;20542;-68
2022/10/17 04:28:22;;;;;;;18.17;12.23;;;13.50;99.90;;;;;;5066236;28;20572;-68
2022/10/17 04:30:58;;;;;;;17.38;12.50;;;13.50;99.90;;;;;;5070355;28;20482;-68
2022/10/17 04:33:24;;;;;;;16.17;12.27;;;13.60;99.90;;;;;;5067815;28;20068;-68
2022/10/17 04:36:04;;;;;;;18.92;13.48;;;13.60;99.90;;;;;;5069874;28;20086;-68
2022/10/17 04:38:30;;;;;;;15.43;12.10;;;13.70;99.90;;;;;;5068807;28;20431;-68
2022/10/17 04:40:57;;;;;;;18.00;13.02;;;13.70;99.90;;;;;;5071756;28;20140;-67
2022/10/17 04:43:23;;;;;;;15.98;12.52;;;13.80;99.90;;;;;;5069683;28;20115;-68
2022/10/17 04:45:48;;;;;;;14.52;12.38;;;13.80;99.90;;;;;;5071096;28;20131;-68
2022/10/17 04:48:14;;;;;;;14.18;12.38;;;13.90;99.90;;;;;;5069621;28;20039;-68
2022/10/17 04:50:39;;;;;;;14.52;12.25;;;13.90;99.90;;;;;;5070065;28;20038;-68
2022/10/17 04:53:05;;;;;;;14.18;12.32;;;14.00;99.90;;;;;;5053357;28;20097;-68
2022/10/17 04:55:35;;;;;;;15.60;11.50;;;14.00;99.90;;;;;;5071374;28;20475;-68
2022/10/17 04:58:00;;;;;;;17.75;12.43;;;14.00;99.90;;;;;;5071107;28;20123;-68
2022/10/17 05:00:26;;;;;;;15.50;11.50;;;14.00;99.90;;;;;;5070924;28;20131;-68
2022/10/17 05:02:53;;;;;;;15.43;12.27;;;14.00;99.90;;;;;;5067583;28;20052;-68
2022/10/17 05:05:18;;;;;;;17.85;12.80;;;14.00;99.90;;;;;;5088341;28;20051;-68
2022/10/17 05:07:44;;;;;;;15.13;12.10;;;14.00;99.90;;;;;;5087914;28;20048;-68
2022/10/17 05:10:10;;;;;;;13.52;11.93;;;14.00;99.90;;;;;;5070134;28;20040;-68
2022/10/17 05:12:35;;;;;;;13.57;11.43;;;14.00;99.90;;;;;;5052775;28;20075;-68
2022/10/17 05:15:01;;;;;;;15.05;12.88;;;14.00;99.90;;;;;;5049556;28;20054;-68
2022/10/17 05:17:26;;;;;;;16.85;12.60;;;14.00;99.90;;;;;;5068738;28;20471;-68
2022/10/17 05:19:52;;;;;;;18.73;12.48;;;14.00;99.90;;;;;;5052157;28;20161;-68
2022/10/17 05:22:17;;;;;;;13.65;12.10;;;14.00;99.90;;;;;;5070658;28;20487;-68
2022/10/17 05:24:43;;;;;;;13.80;11.75;;;14.10;99.90;;;;;;5068295;28;20040;-68
2022/10/17 05:27:09;;;;;;;14.00;12.00;;;14.10;99.90;;;;;;5069616;28;20032;-68
2022/10/17 05:29:34;;;;;;;16.20;11.75;;;14.10;99.90;;;;;;5052776;28;20055;-68
2022/10/17 05:32:00;;;;;;;14.85;11.60;;;14.10;99.90;;;;;;5050913;28;20509;-68
2022/10/17 05:34:26;;;;;;;13.20;10.80;;;14.10;99.90;;;;;;5056363;28;20032;-68
2022/10/17 05:36:51;;;;;;;16.98;11.60;;;14.10;99.90;;;;;;5072322;28;20093;-68
2022/10/17 05:39:18;;;;;;;14.43;10.82;;;14.10;99.90;;;;;;5067414;28;20402;-68
2022/10/17 05:41:45;;;;;;;13.00;11.15;;;14.10;99.90;;;;;;5058371;28;20383;-69
2022/10/17 05:44:11;;;;;;;14.80;11.68;;;14.10;99.90;;;;;;5069434;28;20123;-68
2022/10/17 05:46:40;;;;;;;13.02;10.98;;;14.10;99.90;;;;;;5073811;28;20515;-68
2022/10/17 05:49:05;;;;;;;13.95;11.38;;;14.10;99.90;;;;;;5057825;28;20142;-68
2022/10/17 05:51:32;;;;;;;14.63;11.25;;;14.10;99.90;;;;;;5074087;28;20048;-68
2022/10/17 05:54:03;;;;;;;16.95;11.43;;;14.10;99.90;;;;;;5067068;28;20171;-68
2022/10/17 05:56:29;;;;;;;14.23;11.13;;;14.20;99.90;;;;;;5070962;28;20048;-68
2022/10/17 05:58:54;;;;;;;13.63;11.50;;;14.20;99.90;;;;;;5087352;28;20372;-68
2022/10/17 06:01:20;;;;;;;14.82;12.00;;;14.20;99.90;;;;;;5074341;28;20059;-68
2022/10/17 06:03:46;;;;;;;14.23;10.95;;;14.20;99.90;;;;;;5073087;28;20036;-68
2022/10/17 06:06:13;;;;;;;15.18;10.73;;;14.20;99.90;;;;;;5074162;28;20048;-68
2022/10/17 06:08:39;;;;;;;17.02;10.60;;;14.20;99.90;;;;;;5072731;28;20482;-68
2022/10/17 06:11:05;;;;;;;14.35;11.15;;;14.20;99.90;;;;;;5072583;28;20043;-68
2022/10/17 06:13:30;;;;;;;13.55;11.13;;;14.30;99.90;;;;;;5073915;28;20051;-68
2022/10/17 06:15:56;;;;;;;15.32;11.45;;;14.30;99.90;;;;;;5072594;28;20454;-68
2022/10/17 06:18:22;;;;;;;15.70;11.40;;;14.30;99.90;;;;;;5074418;28;20438;-68
2022/10/17 06:20:47;;;;;;;19.25;11.05;;;14.30;99.90;;;;;;5069930;28;20130;-69
2022/10/17 06:23:13;;;;;;;19.13;10.70;;;14.40;99.90;;;;;;5074180;28;20083;-68
2022/10/17 06:25:39;;;;;;;11.38;10.20;;;14.40;99.90;;;;;;5073444;28;20036;-68
2022/10/17 06:28:04;;;;;;;14.60;10.30;;;14.40;99.90;;;;;;5073806;28;20035;-68
2022/10/17 06:30:30;;;;;;;13.88;11.13;;;14.40;99.90;;;;;;5071281;28;20075;-68
2022/10/17 06:32:55;;;;;;;18.65;12.35;;;14.40;99.90;;;;;;5074299;28;20036;-67
2022/10/17 06:35:21;;;;;;;17.05;12.00;;;14.50;99.90;;;;;;5071480;28;20044;-68
2022/10/17 06:37:47;;;;;;;19.38;12.98;;;14.50;99.90;;;;;;5073626;28;20032;-68
2022/10/17 06:40:15;;;;;;;20.95;12.90;;;14.50;99.90;;;;;;5073293;28;20056;-69
2022/10/17 06:42:41;;;;;;;21.00;12.73;;;14.60;99.90;;;;;;5071117;28;20048;-66
2022/10/17 06:45:08;;;;;;;16.98;11.55;;;14.60;99.90;;;;;;5063324;28;20089;-69
2022/10/17 06:47:34;;;;;;;20.65;11.65;;;14.70;99.90;;;;;;5070896;28;20050;-69
2022/10/17 06:49:59;;;;;;;16.27;10.13;;;14.70;99.90;;;;;;5056801;28;20098;-67
2022/10/17 06:52:25;;;;;;;14.80;9.93;;;14.70;99.90;;;;;;5057501;28;20455;-68
2022/10/17 06:54:51;;;;;;;13.23;10.27;;;14.80;99.90;;;;;;5074342;28;20042;-68
2022/10/17 06:57:17;;;;;;;15.02;9.88;;;14.80;99.90;;;;;;5057243;28;20063;-67
2022/10/17 06:59:43;;;;;;;15.10;10.35;;;14.80;99.90;;;;;;5074290;28;20043;-68
2022/10/17 07:02:11;;;;;;;11.52;9.10;;;14.90;99.90;;;;;;5073852;28;20052;-68
2022/10/17 07:04:37;;;;;;;13.65;9.77;;;14.90;99.90;;;;;;5074060;28;20032;-68
2022/10/17 07:07:03;;;;;;;11.75;9.38;;;14.90;99.90;;;;;;5073744;28;20054;-68
2022/10/17 07:09:30;;;;;;;13.73;9.82;;;15.00;99.90;;;;;;5073836;28;20123;-68
2022/10/17 07:11:56;;;;;;;12.93;8.65;;;15.00;99.90;;;;;;5073885;28;20490;-67
2022/10/17 07:14:22;;;;;;;11.02;9.43;;;15.10;99.90;;;;;;5073883;28;20055;-69
2022/10/17 07:16:48;;;;;;;11.90;9.50;;;15.10;99.90;;;;;;5074290;28;20032;-67
2022/10/17 07:19:14;;;;;;;12.85;8.75;;;15.20;99.90;;;;;;5073566;28;20063;-67
2022/10/17 07:21:40;;;;;;;9.95;8.35;;;15.30;99.90;;;;;;5073653;28;20487;-67
2022/10/17 07:24:06;;;;;;;13.73;8.85;;;15.30;99.90;;;;;;5056476;28;20583;-68
2022/10/17 07:26:32;;;;;;;11.15;9.05;;;15.40;99.90;;;;;;5068436;28;20047;-68
2022/10/17 07:28:58;;;;;;;11.23;8.63;;;15.40;99.90;;;;;;5072976;28;20047;-67
2022/10/17 07:31:23;;;;;;;9.00;8.07;;;15.50;99.90;;;;;;5073410;28;20036;-68
2022/10/17 07:33:50;;;;;;;14.82;9.52;;;15.60;99.90;;;;;;5072107;28;20127;-67
2022/10/17 07:36:16;;;;;;;15.38;8.75;;;15.70;99.90;;;;;;5072723;28;20185;-68
2022/10/17 07:38:42;;;;;;;10.20;8.05;;;15.80;99.90;;;;;;5072755;28;20044;-67
2022/10/17 07:41:10;;;;;;;12.50;8.45;;;15.80;99.90;;;;;;5072810;28;20146;-69
2022/10/17 07:43:36;;;;;;;11.13;8.05;;;15.80;99.90;;;;;;5072717;28;20050;-68
2022/10/17 07:46:04;;;;;;;12.07;8.52;;;15.80;99.90;;;;;;5070443;28;20032;-68
2022/10/17 07:48:30;;;;;;;10.60;8.23;;;15.80;99.90;;;;;;5072885;28;20071;-68
2022/10/17 07:50:55;;;;;;;10.27;8.23;;;15.80;99.90;;;;;;5072811;28;20146;-69
2022/10/17 07:53:21;;;;;;;9.98;7.85;;;15.90;99.90;;;;;;5072399;28;20042;-67
2022/10/17 07:55:48;;;;;;;8.50;7.65;;;15.90;99.90;;;;;;5068136;28;20044;-67
2022/10/17 07:58:14;;;;;;;11.05;8.40;;;15.90;99.90;;;;;;5072695;28;20044;-68
2022/10/17 08:00:40;;;;;;;11.13;8.93;;;15.90;99.90;;;;;;5071732;28;20534;-68
2022/10/17 08:03:06;;;;;;;8.30;7.45;;;15.90;99.90;;;;;;5073036;28;20123;-67
2022/10/17 08:05:32;;;;;;;11.23;7.90;;;15.90;99.90;;;;;;5055307;28;20044;-67
2022/10/17 08:07:58;;;;;;;12.10;8.32;;;16.00;99.90;;;;;;5073257;28;20524;-68
2022/10/17 08:10:26;;;;;;;12.48;8.18;;;16.00;99.90;;;;;;5072561;28;20111;-67
2022/10/17 08:12:56;;;;;;;8.73;7.38;;;16.00;99.90;;;;;;5055251;28;20040;-68
2022/10/17 08:15:25;;;;;;;12.02;8.32;;;16.00;99.90;;;;;;5072959;28;20067;-68
2022/10/17 08:17:51;;;;;;;8.60;7.70;;;15.90;99.90;;;;;;5055850;28;20050;-68
2022/10/17 08:20:17;;;;;;;13.30;8.07;;;15.90;99.90;;;;;;5055803;28;20131;-67
2022/10/17 08:22:49;;;;;;;9.50;7.82;;;15.90;99.90;;;;;;5072380;28;20039;-68
2022/10/17 08:25:15;;;;;;;9.70;7.78;;;16.00;99.90;;;;;;5072532;28;20138;-68
2022/10/17 08:27:40;;;;;;;12.23;8.48;;;15.90;99.90;;;;;;5072337;28;20515;-68
2022/10/17 08:30:07;;;;;;;10.02;7.45;;;15.90;99.90;;;;;;5072422;28;20035;-69
2022/10/17 08:32:32;;;;;;;10.40;7.28;;;15.90;99.90;;;;;;5072433;28;20074;-67
2022/10/17 08:34:58;;;;;;;15.43;7.25;;;15.90;99.90;;;;;;5072684;28;20078;-68
2022/10/17 08:37:24;;;;;;;8.95;7.05;;;15.90;99.90;;;;;;5072212;28;20044;-68
2022/10/17 08:39:49;;;;;;;9.45;7.13;;;16.00;99.90;;;;;;5076489;28;20062;-68
2022/10/17 08:43:03;;;;;;;10.13;7.43;;;16.00;99.90;;;;;;5089391;28;20043;-68
2022/10/17 08:45:34;;;;;;;14.18;7.68;;;16.00;99.90;;;;;;5089327;28;20362;-68
2022/10/17 08:48:03;;;;;;;10.38;7.53;;;16.00;99.90;;;;;;5088986;28;20036;-68
2022/10/17 08:50:52;;;;;;;9.50;7.75;;;16.00;99.90;;;;;;5089336;28;20036;-68
2022/10/17 08:53:30;;;;;;;10.13;7.43;;;16.00;99.90;;;;;;5089182;28;20048;-68
2022/10/17 08:55:56;;;;;;;11.95;7.40;;;16.10;99.90;;;;;;5088944;28;20418;-68
2022/10/17 08:58:31;;;;;;;10.25;7.22;;;16.10;99.90;;;;;;5088894;28;20083;-69
2022/10/17 09:01:28;;;;;;;9.10;7.32;;;16.20;99.90;;;;;;5088806;28;20429;-68
2022/10/17 09:04:18;;;;;;;13.02;7.38;;;16.10;99.90;;;;;;5089113;28;20470;-68
2022/10/17 09:07:31;;;;;;;10.43;7.60;;;16.20;99.90;;;;;;5088776;28;20072;-68
2022/10/17 09:10:31;;;;;;;13.13;7.38;;;16.20;99.90;;;;;;4991161;28;20045;-68
2022/10/17 09:13:09;;;;;;;9.93;8.20;;;16.20;99.90;;;;;;4977665;28;20588;-67
2022/10/17 09:15:50;;;;;;;10.15;7.40;;;16.30;99.90;;;;;;4995582;28;20045;-69
2022/10/17 09:18:30;;;;;;;8.60;7.30;;;16.30;99.90;;;;;;4992511;28;20081;-68
2022/10/17 09:21:19;;;;;;;13.90;8.30;;;16.30;99.90;;;;;;4994848;28;20401;-67
2022/10/17 09:23:58;;;;;;;11.63;7.97;;;16.30;99.90;;;;;;4995041;28;20038;-68
2022/10/17 09:26:25;;;;;;;10.07;8.07;;;16.30;99.90;;;;;;5011455;28;20041;-68
2022/10/17 09:28:54;;;;;;;11.35;7.88;;;16.30;99.90;;;;;;4978695;28;20049;-66
2022/10/17 09:31:34;;;;;;;10.95;8.35;;;16.30;99.90;;;;;;4993186;28;20076;-68
2022/10/17 09:34:01;;;;;;;13.18;8.68;;;16.20;99.90;;;;;;4994787;28;20053;-68
2022/10/17 09:36:31;;;;;;;15.18;8.90;;;16.30;99.90;;;;;;4995099;28;20556;-67
2022/10/17 09:39:03;;;;;;;14.68;9.30;;;16.20;99.90;;;;;;4978936;28;20050;-67
2022/10/17 09:41:34;;;;;;;17.15;9.05;;;16.20;99.90;;;;;;5073196;28;20051;-67
2022/10/17 09:44:31;;;;;;;12.02;9.30;;;16.10;99.90;;;;;;5092115;28;20044;-68
2022/10/17 09:47:09;;;;;;;13.50;9.57;;;16.10;99.90;;;;;;5091712;28;20447;-69
2022/10/17 09:49:40;;;;;;;11.77;9.23;;;16.10;99.90;;;;;;5092489;28;20058;-68
2022/10/17 09:52:25;;;;;;;12.30;9.00;;;16.10;99.90;;;;;;5091777;28;20517;-68
2022/10/17 09:54:57;;;;;;;12.27;9.80;;;16.10;99.90;;;;;;5091860;28;20029;-68
2022/10/17 09:57:22;;;;;;;13.87;10.23;;;16.00;99.90;;;;;;5092083;28;20419;-68
2022/10/17 09:59:56;;;;;;;13.68;9.98;;;16.00;99.90;;;;;;5092060;28;20283;-67
2022/10/17 10:02:23;;;;;;;14.57;10.38;;;16.00;99.90;;;;;;5091606;28;20043;-67
2022/10/17 10:05:15;;;;;;;15.63;9.98;;;16.00;99.90;;;;;;5092117;28;20075;-67
2022/10/17 10:07:41;;;;;;;14.30;10.13;;;16.00;99.90;;;;;;5092330;28;20554;-67
2022/10/17 10:10:26;;;;;;;15.00;9.43;;;16.00;99.90;;;;;;5092048;28;20044;-67
2022/10/17 10:13:14;;;;;;;14.52;9.73;;;16.00;99.90;;;;;;5091810;28;20037;-67
2022/10/17 10:15:45;;;;;;;17.13;8.90;;;16.00;99.90;;;;;;5072843;28;20043;-68
2022/10/17 10:18:34;;;;;;;16.40;9.68;;;16.00;99.90;;;;;;5091908;28;20482;-68
2022/10/17 10:21:10;;;;;;;15.55;10.65;;;16.00;99.90;;;;;;5091843;28;20040;-68
2022/10/17 10:23:41;;;;;;;16.02;10.27;;;16.00;99.90;;;;;;5090493;28;20126;-67
2022/10/17 10:26:21;;;;;;;15.70;10.77;;;16.00;99.90;;;;;;5091086;28;20043;-68
2022/10/17 10:29:03;;;;;;;16.00;10.43;;;16.00;99.90;;;;;;5091572;28;20058;-68
2022/10/17 10:31:39;;;;;;;18.67;11.60;;;15.90;99.90;;;;;;5092691;28;20040;-68
2022/10/17 10:34:27;;;;;;;18.58;11.38;;;15.90;99.90;;;;;;5091578;28;20032;-67
2022/10/17 10:37:06;;;;;;;14.68;10.38;;;15.90;99.90;;;;;;5124910;27;20036;-67
2022/10/17 10:39:48;;;;;;;14.15;9.48;;;15.90;99.90;;;;;;5091152;28;20060;-68
2022/10/17 10:42:27;;;;;;;13.75;9.70;;;15.90;99.90;;;;;;5057425;28;20565;-67
2022/10/17 10:45:35;;;;;;;12.80;9.80;;;15.90;99.90;;;;;;5074037;28;20124;-68
2022/10/17 10:48:05;;;;;;;18.70;10.50;;;16.00;99.90;;;;;;5013368;28;20033;-67
2022/10/17 10:50:47;;;;;;;17.05;10.35;;;16.00;99.90;;;;;;5013310;28;20116;-67
2022/10/17 10:53:38;;;;;;;15.75;9.93;;;16.00;99.90;;;;;;5013295;28;20060;-68
2022/10/17 10:56:28;;;;;;;16.13;10.98;;;16.00;99.90;;;;;;5007980;28;20042;-67
2022/10/17 10:59:05;;;;;;;16.35;10.93;;;16.00;99.90;;;;;;4993551;28;20405;-67
2022/10/17 11:01:52;;;;;;;17.00;11.02;;;16.10;99.90;;;;;;4988929;28;20775;-68
2022/10/17 11:04:20;;;;;;;14.70;10.73;;;16.10;99.90;;;;;;4987025;28;20085;-68
2022/10/17 11:06:49;;;;;;;20.52;11.30;;;16.10;99.90;;;;;;4986503;28;20133;-67
2022/10/17 11:09:28;;;;;;;20.75;12.13;;;16.00;99.90;;;;;;4998065;28;20046;-68
2022/10/17 11:12:00;;;;;;;18.60;11.57;;;16.10;99.90;;;;;;4985023;28;20125;-68
2022/10/17 11:14:46;;;;;;;15.18;10.75;;;16.00;99.90;;;;;;4981978;28;20042;-67
2022/10/17 11:17:37;;;;;;;13.43;10.27;;;16.00;99.90;;;;;;4985491;28;20518;-68
2022/10/17 11:20:06;;;;;;;18.50;11.27;;;16.00;99.90;;;;;;5056353;28;20102;-68
2022/10/17 11:22:46;;;;;;;16.92;12.10;;;16.00;99.90;;;;;;5057012;28;20051;-67
2022/10/17 11:25:27;;;;;;;17.85;12.05;;;16.00;99.90;;;;;;5064276;28;20128;-67
2022/10/17 11:27:53;;;;;;;22.75;12.48;;;16.00;99.90;;;;;;5068718;28;20036;-67
2022/10/17 11:30:19;;;;;;;18.27;12.20;;;16.00;99.90;;;;;;5052389;28;20044;-68
2022/10/17 11:32:52;;;;;;;21.17;12.35;;;16.00;99.90;;;;;;5064469;28;20074;-68
2022/10/17 11:35:29;;;;;;;17.45;12.07;;;16.00;99.90;;;;;;5063779;28;20064;-68
2022/10/17 11:38:17;;;;;;;16.58;11.82;;;16.10;99.90;;;;;;5073397;28;20455;-68
2022/10/17 11:40:52;;;;;;;22.20;12.80;;;16.10;99.90;;;;;;5081446;28;20482;-68
2022/10/17 11:43:46;;;;;;;18.23;11.88;;;16.10;99.90;;;;;;5090598;28;20089;-68
2022/10/17 11:46:24;;;;;;;17.15;11.80;;;16.10;99.90;;;;;;5085436;28;20058;-68
2022/10/17 11:48:59;;;;;;;19.63;11.80;;;16.20;99.90;;;;;;5091312;28;20418;-68
2022/10/17 11:51:24;;;;;;;14.77;11.32;;;16.20;99.90;;;;;;5090336;28;20044;-68
2022/10/17 11:53:57;;;;;;;14.27;11.43;;;16.30;99.90;;;;;;5090047;28;20517;-68
2022/10/17 11:57:03;;;;;;;14.48;11.52;;;16.30;99.90;;;;;;5090203;28;20094;-67
2022/10/17 12:00:09;;;;;;;15.18;11.60;;;16.40;99.90;;;;;;4992599;28;20046;-68
2022/10/17 12:02:57;;;;;;;13.82;10.32;;;16.50;99.90;;;;;;4992805;28;20124;-68
2022/10/17 12:05:32;;;;;;;12.25;10.23;;;16.50;99.90;;;;;;4992634;28;20082;-68
2022/10/17 12:08:23;;;;;;;13.05;10.32;;;16.50;99.90;;;;;;4992852;28;20112;-68
2022/10/17 12:11:09;;;;;;;14.23;9.75;;;16.60;99.90;;;;;;4992298;28;20100;-68
2022/10/17 12:13:47;;;;;;;12.95;10.38;;;16.60;99.90;;;;;;4992864;28;20041;-68
2022/10/17 12:16:18;;;;;;;12.45;9.55;;;16.60;99.90;;;;;;5009228;28;20058;-68
2022/10/17 12:18:49;;;;;;;12.20;9.50;;;16.50;99.90;;;;;;4976162;28;20042;-68
2022/10/17 12:21:15;;;;;;;12.23;9.20;;;16.50;99.90;;;;;;4992628;28;20042;-68
2022/10/17 12:23:50;;;;;;;13.02;9.43;;;16.50;99.90;;;;;;4992565;28;20511;-68
2022/10/17 12:26:25;;;;;;;12.63;8.63;;;16.50;99.90;;;;;;4992358;28;20038;-68
2022/10/17 12:28:51;;;;;;;12.25;8.95;;;16.50;99.90;;;;;;4991819;28;20132;-68
2022/10/17 12:31:18;;;;;;;11.10;8.35;;;16.50;99.90;;;;;;4992418;28;20568;-68
2022/10/17 12:33:47;;;;;;;9.02;8.07;;;16.50;99.90;;;;;;4992320;28;20034;-68
2022/10/17 12:36:16;;;;;;;9.25;7.82;;;16.50;99.90;;;;;;5019944;28;20071;-68
2022/10/17 12:39:01;;;;;;;9.27;8.13;;;16.50;99.90;;;;;;5089583;28;20069;-68
2022/10/17 12:41:39;;;;;;;8.70;7.40;;;16.50;99.90;;;;;;5089296;28;20060;-68
2022/10/17 12:44:24;;;;;;;8.77;7.90;;;16.50;99.90;;;;;;5072804;28;20059;-68
2022/10/17 12:47:36;;;;;;;10.07;7.78;;;16.50;99.90;;;;;;5088439;28;20042;-68
2022/10/17 12:50:02;;;;;;;8.52;7.63;;;16.40;99.90;;;;;;5072414;28;20040;-68
2022/10/17 12:52:31;;;;;;;11.05;8.15;;;16.40;99.90;;;;;;5089513;28;20501;-68
2022/10/17 12:55:03;;;;;;;8.80;7.68;;;16.40;99.90;;;;;;5089178;28;20048;-68
2022/10/17 12:57:40;;;;;;;13.23;8.30;;;16.30;99.90;;;;;;5089078;28;20039;-68
2022/10/17 13:00:24;;;;;;;10.90;8.35;;;16.30;99.90;;;;;;5088993;28;20039;-68